createdAt,value
2019-02-23T00:01:33.725Z,23.50
2019-02-23T00:04:06.184Z,23.40
2019-02-23T00:06:38.052Z,23.50
2019-02-23T00:09:10.613Z,23.50
2019-02-23T00:11:42.548Z,23.40
2019-02-23T00:14:14.653Z,23.40
2019-02-23T00:16:46.679Z,23.40
2019-02-23T00:19:24.886Z,23.40
2019-02-23T00:21:52.663Z,23.40
2019-02-23T00:24:24.730Z,23.40
2019-02-23T00:26:56.541Z,23.40
2019-02-23T00:29:28.564Z,23.30
2019-02-23T00:32:00.356Z,23.30
2019-02-23T00:34:32.805Z,23.30
2019-02-23T00:37:04.610Z,23.30
2019-02-23T00:39:36.723Z,23.40
2019-02-23T00:42:08.513Z,23.30
2019-02-23T00:44:40.381Z,23.30
2019-02-23T00:47:12.155Z,23.30
2019-02-23T00:49:44.372Z,23.20
2019-02-23T00:52:16.179Z,23.20
2019-02-23T00:54:48.029Z,23.20
2019-02-23T00:57:19.808Z,23.20
2019-02-23T00:59:51.828Z,23.20
2019-02-23T01:02:23.579Z,23.20
2019-02-23T01:04:56.718Z,23.20
2019-02-23T01:07:28.530Z,23.20
2019-02-23T01:10:00.801Z,23.20
2019-02-23T01:12:32.656Z,23.20
2019-02-23T01:15:05.040Z,23.10
2019-02-23T01:17:36.924Z,23.10
2019-02-23T01:20:11.526Z,23.10
2019-02-23T01:22:43.307Z,23.10
2019-02-23T01:25:15.349Z,23.10
2019-02-23T01:27:47.291Z,23.10
2019-02-23T01:30:19.387Z,23.10
2019-02-23T01:32:51.177Z,23.10
2019-02-23T01:35:23.417Z,23.10
2019-02-23T01:37:55.167Z,23.00
2019-02-23T01:40:27.344Z,23.00
2019-02-23T01:42:59.106Z,23.00
2019-02-23T01:45:41.906Z,22.90
2019-02-23T01:48:04.636Z,22.90
2019-02-23T01:50:37.137Z,23.00
2019-02-23T01:53:08.903Z,22.90
2019-02-23T01:55:40.973Z,23.00
2019-02-23T01:58:12.761Z,23.00
2019-02-23T02:00:44.718Z,23.00
2019-02-23T02:03:16.716Z,22.90
2019-02-23T02:05:48.884Z,22.90
2019-02-23T02:08:20.613Z,23.00
2019-02-23T02:10:52.622Z,22.90
2019-02-23T02:13:24.543Z,23.00
2019-02-23T02:15:56.570Z,23.00
2019-02-23T02:18:28.330Z,23.10
2019-02-23T02:21:00.691Z,23.00
2019-02-23T02:23:32.517Z,23.00
2019-02-23T02:26:04.455Z,23.00
2019-02-23T02:28:36.304Z,23.00
2019-02-23T02:31:08.254Z,23.00
2019-02-23T02:34:08.895Z,23.00
2019-02-23T02:36:41.265Z,23.00
2019-02-23T02:39:17.528Z,23.00
2019-02-23T02:41:49.352Z,23.10
2019-02-23T02:44:21.158Z,23.10
2019-02-23T02:46:52.999Z,23.00
2019-02-23T02:49:24.753Z,23.00
2019-02-23T02:51:56.911Z,23.00
2019-02-23T02:54:28.640Z,23.00
2019-02-23T02:57:00.529Z,23.00
2019-02-23T02:59:32.283Z,23.00
2019-02-23T03:02:04.705Z,23.10
2019-02-23T03:04:36.825Z,23.00
2019-02-23T03:07:09.233Z,23.10
2019-02-23T03:09:40.973Z,23.10
2019-02-23T03:12:13.059Z,23.20
2019-02-23T03:14:44.805Z,23.20
2019-02-23T03:17:17.082Z,23.10
2019-02-23T03:19:48.806Z,23.10
2019-02-23T03:22:21.213Z,23.10
2019-02-23T03:24:52.976Z,23.10
2019-02-23T03:27:25.057Z,23.20
2019-02-23T03:29:56.849Z,23.20
2019-02-23T03:32:28.871Z,23.10
2019-02-23T03:35:01.924Z,23.00
2019-02-23T03:37:35.562Z,23.10
2019-02-23T03:40:09.089Z,23.00
2019-02-23T03:42:41.122Z,23.00
2019-02-23T03:45:12.860Z,23.00
2019-02-23T03:47:44.869Z,23.00
2019-02-23T03:50:16.611Z,23.00
2019-02-23T03:52:49.283Z,23.00
2019-02-23T03:55:21.060Z,23.10
2019-02-23T03:57:53.112Z,23.00
2019-02-23T04:00:24.887Z,23.00
2019-02-23T04:02:56.745Z,22.90
2019-02-23T04:05:28.519Z,22.90
2019-02-23T04:08:00.866Z,22.90
2019-02-23T04:10:32.665Z,22.80
2019-02-23T04:13:04.806Z,22.80
2019-02-23T04:15:36.565Z,22.80
2019-02-23T04:18:09.738Z,22.90
2019-02-23T04:20:41.556Z,22.90
2019-02-23T04:23:13.385Z,22.90
2019-02-23T04:25:45.191Z,22.80
2019-02-23T04:28:17.054Z,22.80
2019-02-23T04:30:48.822Z,22.80
2019-02-23T04:33:20.647Z,22.70
2019-02-23T04:35:52.421Z,22.80
2019-02-23T04:38:24.842Z,22.70
2019-02-23T04:40:56.584Z,22.70
2019-02-23T04:43:28.558Z,22.70
2019-02-23T04:46:00.428Z,22.80
2019-02-23T04:48:32.301Z,22.70
2019-02-23T04:51:13.780Z,22.70
2019-02-23T04:53:37.942Z,22.70
2019-02-23T04:56:09.728Z,22.70
2019-02-23T04:58:41.778Z,22.70
2019-02-23T05:01:13.582Z,22.60
2019-02-23T05:03:45.703Z,22.60
2019-02-23T05:06:17.476Z,22.60
2019-02-23T05:08:49.934Z,22.60
2019-02-23T05:11:21.755Z,22.60
2019-02-23T05:13:54.072Z,22.60
2019-02-23T05:16:25.827Z,22.60
2019-02-23T05:18:57.890Z,22.50
2019-02-23T05:21:29.829Z,22.60
2019-02-23T05:24:02.124Z,22.60
2019-02-23T05:26:34.021Z,22.60
2019-02-23T05:29:05.879Z,22.60
2019-02-23T05:31:37.933Z,22.60
2019-02-23T05:34:09.807Z,22.60
2019-02-23T05:36:41.556Z,22.60
2019-02-23T05:39:13.812Z,22.50
2019-02-23T05:41:45.633Z,22.60
2019-02-23T05:44:17.705Z,22.60
2019-02-23T05:46:49.468Z,22.60
2019-02-23T05:49:21.377Z,22.70
2019-02-23T05:51:53.145Z,22.60
2019-02-23T05:54:24.944Z,22.70
2019-02-23T05:56:56.718Z,22.70
2019-02-23T05:59:28.693Z,22.80
2019-02-23T06:02:02.256Z,22.70
2019-02-23T06:04:34.059Z,22.80
2019-02-23T06:07:05.829Z,22.90
2019-02-23T06:09:38.086Z,22.90
2019-02-23T06:12:09.986Z,22.90
2019-02-23T06:14:43.027Z,23.00
2019-02-23T06:17:14.777Z,23.00
2019-02-23T06:19:46.623Z,23.00
2019-02-23T06:22:18.384Z,23.00
2019-02-23T06:24:50.536Z,23.10
2019-02-23T06:27:22.319Z,23.10
2019-02-23T06:29:54.310Z,23.10
2019-02-23T06:32:26.082Z,23.30
2019-02-23T06:34:58.255Z,23.30
2019-02-23T06:37:30.138Z,23.50
2019-02-23T06:40:02.481Z,23.40
2019-02-23T06:42:34.237Z,23.30
2019-02-23T06:45:06.603Z,23.60
2019-02-23T06:47:38.398Z,23.60
2019-02-23T06:50:15.474Z,23.80
2019-02-23T06:52:47.256Z,23.90
2019-02-23T06:55:19.138Z,23.80
2019-02-23T06:57:52.103Z,23.90
2019-02-23T07:00:24.226Z,23.90
2019-02-23T07:02:56.039Z,23.90
2019-02-23T07:05:28.044Z,23.90
2019-02-23T07:07:59.846Z,23.90
2019-02-23T07:10:32.174Z,24.10
2019-02-23T07:13:03.936Z,24.10
2019-02-23T07:15:36.363Z,24.10
2019-02-23T07:18:08.260Z,24.20
2019-02-23T07:20:44.151Z,24.10
2019-02-23T07:23:13.896Z,24.10
2019-02-23T07:25:46.588Z,24.30
2019-02-23T07:28:18.457Z,24.50
2019-02-23T07:30:50.875Z,24.50
2019-02-23T07:33:32.368Z,24.50
2019-02-23T07:35:56.522Z,24.60
2019-02-23T07:38:28.341Z,24.50
2019-02-23T07:41:00.488Z,24.70
2019-02-23T07:43:32.272Z,24.70
2019-02-23T07:46:04.196Z,24.90
2019-02-23T07:48:37.418Z,24.80
2019-02-23T07:51:09.448Z,24.90
2019-02-23T07:53:41.271Z,24.90
2019-02-23T07:56:13.204Z,24.70
2019-02-23T07:58:45.103Z,24.90
2019-02-23T08:01:17.044Z,25.00
2019-02-23T08:03:48.902Z,25.10
2019-02-23T08:06:22.036Z,25.20
2019-02-23T08:08:53.808Z,25.10
2019-02-23T08:11:27.050Z,25.30
2019-02-23T08:13:58.830Z,25.10
2019-02-23T08:16:31.018Z,25.00
2019-02-23T08:19:02.782Z,24.80
2019-02-23T08:21:37.744Z,24.30
2019-02-23T08:24:09.579Z,24.20
2019-02-23T08:26:41.743Z,23.90
2019-02-23T08:29:13.516Z,24.10
2019-02-23T08:31:45.461Z,24.40
2019-02-23T08:34:17.361Z,24.50
2019-02-23T08:36:49.420Z,24.60
2019-02-23T08:39:21.214Z,24.80
2019-02-23T08:41:53.180Z,24.90
2019-02-23T08:44:27.772Z,24.40
2019-02-23T08:46:59.909Z,24.10
2019-02-23T08:49:31.704Z,24.00
2019-02-23T08:52:03.840Z,24.10
2019-02-23T08:54:35.637Z,24.00
2019-02-23T08:57:07.675Z,24.10
2019-02-23T08:59:39.438Z,24.10
2019-02-23T09:02:11.586Z,24.10
2019-02-23T09:04:45.706Z,24.20
2019-02-23T09:07:17.865Z,24.50
2019-02-23T09:09:49.717Z,24.50
2019-02-23T09:12:22.220Z,24.40
2019-02-23T09:14:53.949Z,24.20
2019-02-23T09:17:26.061Z,24.20
2019-02-23T09:19:57.847Z,24.30
2019-02-23T09:22:29.714Z,24.50
2019-02-23T09:25:01.538Z,24.60
2019-02-23T09:27:39.808Z,24.80
2019-02-23T09:30:12.315Z,24.70
2019-02-23T09:32:44.485Z,25.00
2019-02-23T09:35:16.254Z,25.10
2019-02-23T09:37:48.212Z,24.90
2019-02-23T09:40:20.023Z,25.10
2019-02-23T09:42:52.423Z,25.00
2019-02-23T09:45:24.197Z,24.20
2019-02-23T09:47:56.367Z,23.90
2019-02-23T09:50:28.154Z,24.30
2019-02-23T09:53:10.440Z,24.20
2019-02-23T09:55:33.772Z,24.80
2019-02-23T09:58:07.282Z,25.10
2019-02-23T10:00:39.447Z,24.50
2019-02-23T10:03:11.312Z,25.00
2019-02-23T10:05:43.066Z,25.00
2019-02-23T10:08:15.143Z,25.40
2019-02-23T10:10:46.887Z,25.50
2019-02-23T10:13:19.133Z,25.70
2019-02-23T10:15:50.868Z,25.80
2019-02-23T10:18:22.712Z,25.80
2019-02-23T10:20:54.481Z,25.90
2019-02-23T10:23:26.417Z,25.80
2019-02-23T10:25:58.494Z,25.80
2019-02-23T10:28:30.663Z,25.80
2019-02-23T10:31:02.463Z,25.60
2019-02-23T10:33:37.135Z,25.90
2019-02-23T10:36:08.126Z,25.90
2019-02-23T10:38:42.697Z,26.20
2019-02-23T10:41:14.506Z,26.20
2019-02-23T10:43:46.534Z,26.40
2019-02-23T10:46:18.274Z,26.60
2019-02-23T10:48:50.350Z,26.50
2019-02-23T10:51:22.115Z,26.40
2019-02-23T10:53:54.375Z,26.30
2019-02-23T10:56:26.155Z,26.30
2019-02-23T10:58:58.814Z,26.10
2019-02-23T11:01:30.735Z,26.10
2019-02-23T11:04:04.391Z,26.30
2019-02-23T11:06:38.450Z,26.50
2019-02-23T11:09:17.114Z,26.20
2019-02-23T11:11:48.891Z,25.80
2019-02-23T11:14:20.956Z,26.10
2019-02-23T11:16:53.900Z,26.40
2019-02-23T11:19:25.792Z,26.60
2019-02-23T11:21:58.674Z,26.60
2019-02-23T11:24:30.624Z,26.60
2019-02-23T11:27:02.486Z,26.60
2019-02-23T11:29:34.863Z,26.50
2019-02-23T11:32:06.666Z,26.80
2019-02-23T11:34:38.491Z,26.60
2019-02-23T11:37:11.707Z,26.60
2019-02-23T11:39:43.655Z,26.90
2019-02-23T11:42:16.489Z,26.60
2019-02-23T11:44:48.577Z,26.40
2019-02-23T11:47:20.346Z,26.50
2019-02-23T11:49:52.359Z,26.70
2019-02-23T11:52:24.738Z,26.60
2019-02-23T11:54:56.758Z,26.60
2019-02-23T11:57:28.566Z,26.70
2019-02-23T12:00:00.897Z,26.60
2019-02-23T12:02:32.878Z,26.40
2019-02-23T12:05:05.052Z,26.30
2019-02-23T12:07:36.838Z,26.40
2019-02-23T12:10:11.618Z,26.40
2019-02-23T12:12:43.797Z,26.60
2019-02-23T12:15:16.263Z,26.60
2019-02-23T12:17:48.053Z,26.50
2019-02-23T12:20:19.873Z,26.50
2019-02-23T12:22:51.732Z,26.60
2019-02-23T12:25:23.928Z,26.50
2019-02-23T12:27:55.685Z,26.70
2019-02-23T12:30:27.698Z,25.70
2019-02-23T12:32:59.515Z,25.20
2019-02-23T12:35:31.887Z,25.30
2019-02-23T12:38:03.789Z,25.60
2019-02-23T12:40:36.934Z,26.00
2019-02-23T12:43:08.695Z,26.00
2019-02-23T12:45:41.048Z,26.40
2019-02-23T12:48:12.915Z,26.70
2019-02-23T12:50:47.635Z,26.60
2019-02-23T12:53:19.482Z,26.00
2019-02-23T12:55:51.564Z,26.30
2019-02-23T12:58:23.370Z,26.10
2019-02-23T13:00:55.812Z,26.60
2019-02-23T13:03:27.588Z,27.00
2019-02-23T13:06:00.047Z,26.60
2019-02-23T13:09:32.475Z,26.90
2019-02-23T13:12:51.897Z,27.60
2019-02-23T13:15:49.833Z,28.00
2019-02-23T13:19:04.757Z,28.10
2019-02-23T13:22:37.347Z,28.00
2019-02-23T13:26:27.320Z,28.20
2019-02-23T13:29:49.226Z,28.50
2019-02-23T13:33:32.096Z,28.90
2019-02-23T13:37:02.939Z,29.30
2019-02-23T13:40:20.648Z,29.70
2019-02-23T13:44:19.393Z,30.10
2019-02-23T13:47:48.257Z,30.40
2019-02-23T13:50:50.688Z,30.90
2019-02-23T13:54:38.547Z,31.00
2019-02-23T13:57:46.271Z,31.00
2019-02-23T14:01:23.273Z,30.70
2019-02-23T14:04:32.703Z,30.50
2019-02-23T14:08:06.231Z,30.00
2019-02-23T14:11:35.108Z,29.80
2019-02-23T14:15:05.506Z,29.50
2019-02-23T14:18:35.708Z,29.30
2019-02-23T14:21:35.598Z,28.90
2019-02-23T14:24:50.964Z,28.60
2019-02-23T14:28:12.607Z,28.40
2019-02-23T14:31:49.514Z,28.10
2019-02-23T14:35:21.852Z,27.90
2019-02-23T14:38:30.510Z,27.70
2019-02-23T14:41:33.252Z,27.20
2019-02-23T14:44:42.167Z,27.20
2019-02-23T14:47:50.044Z,27.50
2019-02-23T14:51:17.867Z,27.80
2019-02-23T14:55:08.535Z,28.00
2019-02-23T14:58:38.224Z,27.90
2019-02-23T15:01:34.355Z,28.40
2019-02-23T15:04:45.897Z,28.60
2019-02-23T15:08:10.446Z,28.70
2019-02-23T15:11:26.320Z,28.70
2019-02-23T15:14:32.110Z,28.70
2019-02-23T15:17:49.047Z,28.50
2019-02-23T15:21:32.854Z,28.30
2019-02-23T15:25:12.938Z,28.00
2019-02-23T15:28:30.331Z,27.80
2019-02-23T15:32:04.019Z,27.60
2019-02-23T15:35:25.330Z,27.10
2019-02-23T15:38:55.787Z,27.00
2019-02-23T15:42:33.838Z,27.10
2019-02-23T15:46:34.276Z,27.10
2019-02-23T15:49:28.991Z,27.10
2019-02-23T15:52:02.774Z,27.00
2019-02-23T15:54:34.852Z,27.10
2019-02-23T15:57:07.244Z,27.10
2019-02-23T15:59:39.284Z,26.90
2019-02-23T16:02:14.236Z,26.90
2019-02-23T16:04:48.032Z,26.90
2019-02-23T16:07:19.970Z,26.90
2019-02-23T16:09:51.917Z,26.80
2019-02-23T16:12:25.011Z,26.90
2019-02-23T16:14:56.975Z,26.90
2019-02-23T16:17:28.894Z,26.90
2019-02-23T16:20:01.271Z,26.80
2019-02-23T16:22:33.503Z,26.80
2019-02-23T16:25:05.675Z,26.70
2019-02-23T16:27:37.948Z,26.60
2019-02-23T16:30:10.924Z,26.60
2019-02-23T16:32:42.730Z,26.40
2019-02-23T16:35:14.748Z,26.40
2019-02-23T16:37:46.534Z,26.40
2019-02-23T16:40:18.581Z,26.40
2019-02-23T16:42:51.587Z,26.40
2019-02-23T16:45:23.549Z,26.30
2019-02-23T16:48:00.681Z,26.10
2019-02-23T16:50:32.882Z,25.80
2019-02-23T16:53:04.689Z,25.80
2019-02-23T16:55:36.669Z,26.00
2019-02-23T16:58:09.653Z,25.70
2019-02-23T17:00:41.573Z,25.60
2019-02-23T17:03:13.476Z,25.50
2019-02-23T17:05:45.376Z,25.20
2019-02-23T17:08:17.226Z,25.00
2019-02-23T17:10:49.103Z,25.30
2019-02-23T17:13:24.472Z,25.10
2019-02-23T17:15:56.267Z,25.30
2019-02-23T17:18:28.105Z,25.00
2019-02-23T17:21:00.076Z,25.20
2019-02-23T17:23:31.891Z,25.20
2019-02-23T17:26:04.693Z,25.00
2019-02-23T17:28:37.029Z,24.40
2019-02-23T17:31:10.251Z,24.40
2019-02-23T17:33:42.581Z,24.20
2019-02-23T17:36:14.784Z,24.30
2019-02-23T17:38:46.587Z,24.20
2019-02-23T17:41:18.835Z,23.60
2019-02-23T17:43:54.061Z,23.40
2019-02-23T17:46:25.183Z,22.80
2019-02-23T17:48:56.953Z,22.90
2019-02-23T17:51:29.129Z,23.10
2019-02-23T17:54:01.001Z,23.00
2019-02-23T17:56:32.931Z,23.50
2019-02-23T17:59:05.036Z,24.20
2019-02-23T18:01:38.336Z,23.90
2019-02-23T18:04:10.175Z,23.30
2019-02-23T18:06:42.073Z,23.80
2019-02-23T18:09:14.069Z,24.40
2019-02-23T18:11:46.176Z,24.80
2019-02-23T18:14:18.311Z,24.80
2019-02-23T18:16:50.246Z,25.00
2019-02-23T18:19:22.165Z,25.30
2019-02-23T18:21:54.350Z,25.50
2019-02-23T18:24:26.369Z,25.40
2019-02-23T18:27:00.007Z,25.50
2019-02-23T18:29:32.338Z,25.60
2019-02-23T18:32:04.557Z,25.70
2019-02-23T18:34:39.253Z,25.60
2019-02-23T18:37:11.450Z,25.70
2019-02-23T18:39:43.306Z,25.60
2019-02-23T18:42:15.708Z,25.50
2019-02-23T18:44:47.650Z,25.50
2019-02-23T18:47:19.838Z,25.60
2019-02-23T18:49:51.870Z,25.70
2019-02-23T18:52:23.948Z,25.60
2019-02-23T18:54:56.000Z,25.50
2019-02-23T18:57:31.039Z,25.60
2019-02-23T19:00:03.372Z,25.50
2019-02-23T19:02:37.193Z,25.50
2019-02-23T19:05:11.849Z,25.50
2019-02-23T19:07:44.163Z,25.60
2019-02-23T19:10:15.476Z,25.70
2019-02-23T19:12:47.547Z,25.70
2019-02-23T19:15:21.358Z,25.60
2019-02-23T19:17:55.171Z,25.60
2019-02-23T19:20:27.099Z,25.60
2019-02-23T19:22:59.395Z,25.60
2019-02-23T19:25:31.303Z,25.50
2019-02-23T19:28:03.514Z,25.60
2019-02-23T19:30:35.832Z,25.40
2019-02-23T19:33:08.175Z,25.40
2019-02-23T19:35:41.749Z,24.90
2019-02-23T19:38:14.203Z,25.20
2019-02-23T19:40:46.257Z,25.50
2019-02-23T19:43:19.063Z,25.60
2019-02-23T19:45:51.962Z,25.70
2019-02-23T19:48:25.275Z,25.50
2019-02-23T19:51:04.108Z,25.40
2019-02-23T19:53:38.270Z,25.50
2019-02-23T19:56:12.027Z,25.70
2019-02-23T19:58:45.695Z,25.50
2019-02-23T20:01:19.396Z,25.60
2019-02-23T20:03:53.282Z,25.70
2019-02-23T20:06:26.121Z,25.50
2019-02-23T20:08:58.628Z,25.40
2019-02-23T20:11:32.010Z,25.30
2019-02-23T20:14:05.344Z,25.20
2019-02-23T20:16:38.803Z,25.30
2019-02-23T20:19:12.735Z,25.10
2019-02-23T20:21:45.777Z,25.30
2019-02-23T20:24:19.540Z,25.60
2019-02-23T20:26:55.686Z,25.70
2019-02-23T20:29:28.487Z,25.60
2019-02-23T20:32:01.845Z,25.30
2019-02-23T20:34:35.319Z,25.00
2019-02-23T20:37:09.169Z,24.70
2019-02-23T20:39:42.817Z,24.50
2019-02-23T20:42:16.962Z,23.80
2019-02-23T20:44:50.738Z,24.30
2019-02-23T20:47:24.090Z,24.30
2019-02-23T20:50:00.262Z,24.80
2019-02-23T20:52:34.188Z,24.80
2019-02-23T20:55:09.427Z,24.50
2019-02-23T20:57:42.943Z,24.50
2019-02-23T21:00:15.708Z,24.80
2019-02-23T21:02:50.117Z,25.10
2019-02-23T21:05:24.049Z,24.50
2019-02-23T21:07:57.268Z,25.00
2019-02-23T21:10:31.128Z,25.20
2019-02-23T21:13:03.781Z,25.10
2019-02-23T21:15:37.080Z,25.10
2019-02-23T21:18:09.772Z,25.40
2019-02-23T21:20:42.299Z,25.30
2019-02-23T21:23:15.007Z,25.30
2019-02-23T21:25:48.252Z,25.00
2019-02-23T21:28:20.702Z,24.70
2019-02-23T21:30:53.342Z,24.90
2019-02-23T21:33:25.834Z,25.00
2019-02-23T21:35:58.479Z,25.10
2019-02-23T21:38:30.470Z,25.00
2019-02-23T21:41:03.012Z,25.10
2019-02-23T21:43:35.166Z,25.20
2019-02-23T21:46:07.552Z,24.70
2019-02-23T21:48:41.204Z,24.70
2019-02-23T21:51:15.576Z,24.70
2019-02-23T21:53:47.187Z,25.00
2019-02-23T21:56:19.346Z,25.20
2019-02-23T21:58:51.234Z,25.40
2019-02-23T22:01:24.591Z,25.30
2019-02-23T22:03:56.812Z,25.30
2019-02-23T22:06:29.038Z,25.20
2019-02-23T22:09:00.852Z,25.10
2019-02-23T22:11:34.725Z,25.10
2019-02-23T22:14:06.623Z,24.90
2019-02-23T22:16:38.562Z,24.60
2019-02-23T22:19:10.756Z,24.80
2019-02-23T22:21:42.980Z,24.80
2019-02-23T22:24:14.863Z,24.30
2019-02-23T22:26:46.987Z,24.50
2019-02-23T22:29:18.813Z,24.50
2019-02-23T22:31:50.713Z,24.70
2019-02-23T22:34:22.597Z,24.70
2019-02-23T22:36:54.493Z,24.20
2019-02-23T22:39:26.285Z,24.60
2019-02-23T22:41:58.357Z,24.60
2019-02-23T22:44:30.257Z,24.60
2019-02-23T22:47:02.594Z,24.80
2019-02-23T22:49:37.101Z,25.10
2019-02-23T22:52:09.309Z,24.90
2019-02-23T22:54:41.172Z,24.30
2019-02-23T22:57:13.188Z,24.10
2019-02-23T22:59:45.022Z,24.00
2019-02-23T23:02:17.157Z,23.90
2019-02-23T23:04:50.193Z,24.00
2019-02-23T23:07:22.318Z,24.50
2019-02-23T23:09:54.102Z,23.90
2019-02-23T23:12:26.133Z,24.20
2019-02-23T23:14:57.900Z,24.50
2019-02-23T23:17:30.061Z,24.20
2019-02-23T23:20:02.099Z,22.90
2019-02-23T23:22:35.276Z,22.80
2019-02-23T23:25:07.963Z,23.50
2019-02-23T23:27:39.954Z,24.30
2019-02-23T23:30:11.743Z,24.70
2019-02-23T23:32:43.816Z,24.70
2019-02-23T23:35:16.144Z,24.80
2019-02-23T23:37:49.470Z,24.40
2019-02-23T23:40:21.337Z,24.10
2019-02-23T23:42:58.121Z,24.10
2019-02-23T23:45:27.097Z,24.00
2019-02-23T23:47:59.353Z,24.40
2019-02-23T23:50:31.700Z,24.30
2019-02-23T23:53:03.899Z,24.40
2019-02-23T23:55:35.797Z,24.50
2019-02-23T23:58:07.607Z,24.80
